Dierks, Arkansas
Current Conditions -  °F | °C
As of 2:53 AM on Thursday 18 Dec 2014 (Local Time) from KDEQ Reporting Station
Haze Haze  
Wind Chill: 34°   Ceiling: 600
Heat Index: 38°   Visibility: 6mi
Dew Point: 38°   Wind: 5mph
Humidity: 100%   Direction: 80°E
Pressure: 30.17"   Gusts: NA
Location:  34.12°N, 94.02°W
Report Text: KDEQ 180853Z AUTO 08004KT 6SM BR OVC006 03/03 A3017 RMK AO2 RAE39 SLP218 P0000 60001 T00330033 56018
Loading
Personal Weather Stations






























Interactive Weather Map New forecast layout! Learn more

10-Day Weather Forecast

Advertisements
Track Severe Weather on mobile